Domov               UVHVVR             MKGP            O straneh              
ZDRAVSTVENO VARSTVO RASTLIN
  MREŽA AGROMET. POSTAJ
 ► PROGNOSTIČNA OBVESTILA
AGROMETEOROLOŠKI PODATKI -
ARSO
OBVLADOVANJE TVEGANJ ZARADI
NEUGODNIH VREMENSKIH RAZMER
  ► NARAVNE NESREČE
  ► SUŠA/MOČA
  ► NAMAKANJE
  ► ŽLED (gozdarstvo)
KARTOGRAFSKI PRIKAZI
SPLETNE POVEZAVE
PROJEKTI IN PUBLIKACIJE

AGROMETEOROLOŠKA MREŽA: VREMENSKE POSTAJE IN FENOLOŠKA OPAZOVANJA

Pregled podatkov za lokacijo Pohorski dvor, meteorološka postaja 27262

Pregled senzorjev na lokaciji

ID Ime Zadnja
vrednost
Datum
zadnje
spremembe
Tip
senzorja
959 Relativna vlaga 2 m (% RH) 77,58 % RH 19.8.2017 20:01 Generic 0 - 100 %
960 Omočenost lista (U) 0 U 19.8.2017 20:01 A730WET
961 Padavine 0.2 mm (mm) 0 mm 19.8.2017 20:00 Generic
963 Temperatura 2 m ( °C) 17,76 °C 19.8.2017 20:01 Generic -40 - +60 °C

Pregled podatkov zadnjih 24 ur

Zap.
št.
Datum in čas Pohorski dvor
Omočenost
lista
Padavine
0.2
mm
Relativna
vlaga
2
m
Temperatura
2
m
0 19.8.2017 19:00 0 0 77,07 17,85
1 19.8.2017 18:30 0,43 0 73,68 18,27
2 19.8.2017 18:00 0,33 0 76,54 18,81
3 19.8.2017 17:30 2,87 0 78,92 19
4 19.8.2017 17:00 2,4 0 76,25 19,31
5 19.8.2017 16:30 2,27 0 78,33 19,47
6 19.8.2017 16:00 3,93 0 79,85 19,67
7 19.8.2017 15:30 9,3 0 81,64 19,72
8 19.8.2017 15:00 3,53 0,2 81,7 19,81
9 19.8.2017 14:30 9,33 0,6 76,65 20,58
10 19.8.2017 14:00 10 0 71,7 21,44
11 19.8.2017 13:30 10 0 66,32 22,01
12 19.8.2017 13:00 3 0 58,82 23,1
13 19.8.2017 12:30 1,97 0 59,96 23,31
14 19.8.2017 12:00 4,97 0 61 22,98
15 19.8.2017 11:30 0 0 57,04 23,68
16 19.8.2017 11:00 0 0 56,94 23,71
17 19.8.2017 10:30 0 0 55,13 24,05
18 19.8.2017 10:00 0 0 55,27 23,55
19 19.8.2017 09:30 0 0 53,93 23,67
20 19.8.2017 09:00 0 0 52,76 23,7
21 19.8.2017 08:30 0 0 52,01 23,68
22 19.8.2017 08:00 0 0 49,85 24,67
23 19.8.2017 07:30 0 0 55,72 23,75
24 19.8.2017 07:00 0 0 65,09 21,87
25 19.8.2017 06:30 0 0 74,19 20,23
26 19.8.2017 06:00 2 0 85,11 17,16
27 19.8.2017 05:30 2 0 87,12 16,37
28 19.8.2017 05:00 1,27 0 87,78 15,92
29 19.8.2017 04:30 1 0 87 15,91
30 19.8.2017 04:00 0,57 0 85,59 16,09
31 19.8.2017 03:30 0 0 83,19 16,91
32 19.8.2017 03:00 0 0 83,65 17,07
33 19.8.2017 02:30 0 0 83,29 17,01
34 19.8.2017 02:00 0 0 78,33 17,63
35 19.8.2017 01:30 0 0 77,15 17,98
36 19.8.2017 01:00 0 0 68,83 19,47
37 19.8.2017 00:30 0 0 68,08 19,93
38 19.8.2017 00:00 0 0 71,42 19,47
39 18.8.2017 23:30 0 0 67,22 20,61
40 18.8.2017 23:00 0 0 57,35 22,81
41 18.8.2017 22:30 0 0 56,65 22,86
42 18.8.2017 22:00 0 0 58,97 22,34
43 18.8.2017 21:30 0 0 65,41 21,61
44 18.8.2017 21:00 0 0 64,35 21,77
© 2011 Ministrstvo za kmetijstvo, gozdarstvo in prehrano. Vse pravice pridržane.